UPSVAC Airport Information Service

San Antonio International Airport

ICAO: KSAT Country: United States
Latitude: 29.5337 Longitude: -98.4697
Latest Arrival : UPS9707 (B) (KDFW-KSAT) Latest Departure : UPS9780 (B) (KSAT-KSHV)


WX CaptureLIVE
Data provided by noaa.gov | Fetched at 14:09:50

METAR : KSAT 251351Z 34014G22KT 10SM BKN022 BKN033 BKN250 18/07 A2976 RMK AO2 SLP063 T01780067

TAF : KSAT 251329Z 2513/2618 28008KT P6SM VCSH SCT020 OVC050 FM251400 33011G20KT P6SM SCT025 FM252000 32010KT P6SM SKC


Runway Data for KSAT
Data provided by openaviationdata.com

Runway ID Mag Var Hdg Length Elevation Surface ILS Freq ILS Id ILS Slope
3 8 32° 7513 ft 809 ft Concrete 109.7 ISAT 3
12L 8 123° 5522 ft 809 ft Asphalt -- -- --
12R 8 123° 8508 ft 809 ft Concrete 110.9 IANT 3
21 8 212° 7513 ft 809 ft Concrete -- -- --
30L 8 303° 8508 ft 809 ft Concrete 110.9 IIZR 3
30R 8 303° 5522 ft 809 ft Asphalt -- -- --

San Antonio International Airport, United States
Use only for reference purposes



Not for navigational purposes.